createdAt,value
2022-09-23T00:01:58.504Z,97878.00
2022-09-23T00:12:01.769Z,97875.81
2022-09-23T00:22:06.540Z,97869.06
2022-09-23T00:32:08.814Z,97868.72
2022-09-23T00:42:14.672Z,97859.91
2022-09-23T00:52:23.422Z,97848.94
2022-09-23T01:02:26.248Z,97841.13
2022-09-23T01:12:40.407Z,97833.75
2022-09-23T01:22:52.092Z,97832.78
2022-09-23T01:33:12.605Z,97821.00
2022-09-23T01:43:26.740Z,97821.91
2022-09-23T01:53:59.928Z,97816.81
2022-09-23T02:04:24.020Z,97815.00
2022-09-23T02:14:36.920Z,97811.69
2022-09-23T02:24:40.127Z,97800.38
2022-09-23T02:34:58.060Z,97805.81
2022-09-23T02:45:00.399Z,97812.25
2022-09-23T02:55:02.762Z,97809.22
2022-09-23T03:05:19.194Z,97802.03
2022-09-23T03:15:52.281Z,97789.84
2022-09-23T03:25:57.050Z,97780.75
2022-09-23T03:36:22.686Z,97768.81
2022-09-23T03:46:27.742Z,97780.22
2022-09-23T03:56:30.038Z,97774.72
2022-09-23T04:06:32.309Z,97759.72
2022-09-23T04:16:34.642Z,97764.09
2022-09-23T04:26:38.288Z,97762.28
2022-09-23T04:36:40.979Z,97758.22
2022-09-23T04:46:47.722Z,97759.28
2022-09-23T04:56:50.183Z,97753.28
2022-09-23T05:06:52.450Z,97762.31
2022-09-23T05:16:54.688Z,97768.50
2022-09-23T05:26:56.973Z,97766.59
2022-09-23T05:36:59.844Z,97759.53
2022-09-23T05:47:02.894Z,97760.28
2022-09-23T05:57:06.297Z,97758.16
2022-09-23T06:07:08.928Z,97755.63
2022-09-23T06:17:11.245Z,97750.16
2022-09-23T06:27:13.628Z,97755.59
2022-09-23T06:37:20.177Z,97746.16
2022-09-23T06:47:22.651Z,97753.09
2022-09-23T06:57:24.969Z,97758.88
2022-09-23T07:07:31.515Z,97750.16
2022-09-23T07:17:33.859Z,97752.56
2022-09-23T07:27:36.160Z,97746.72
2022-09-23T07:37:38.550Z,97746.09
2022-09-23T07:47:41.129Z,97739.50
2022-09-23T07:57:43.465Z,97735.31
2022-09-23T08:07:45.804Z,97731.28
2022-09-23T08:17:48.090Z,97738.94
2022-09-23T08:27:50.365Z,97729.53
2022-09-23T08:37:52.640Z,97712.66
2022-09-23T08:48:12.986Z,97708.63
2022-09-23T08:58:52.405Z,97694.59
2022-09-23T09:09:02.356Z,97694.41
2022-09-23T09:19:13.864Z,97697.75
2022-09-23T09:29:41.627Z,97685.75
2022-09-23T09:39:44.590Z,97668.03
2022-09-23T09:49:59.175Z,97666.91
2022-09-23T10:00:35.704Z,97644.38
2022-09-23T10:10:37.987Z,97638.25
2022-09-23T10:20:40.738Z,97624.47
2022-09-23T10:31:14.331Z,97614.94
2022-09-23T10:42:00.284Z,97612.06
2022-09-23T10:52:02.635Z,97597.59
2022-09-23T11:02:13.825Z,97587.72
2022-09-23T11:12:35.511Z,97571.50
2022-09-23T11:22:58.732Z,97558.97
2022-09-23T11:33:33.324Z,97554.38
2022-09-23T11:43:40.064Z,97540.56
2022-09-23T11:54:00.056Z,97533.03
2022-09-23T12:04:24.428Z,97528.44
2022-09-23T12:14:26.934Z,97517.31
2022-09-23T12:24:54.502Z,97515.16
2022-09-23T12:34:57.025Z,97498.03
2022-09-23T12:45:26.363Z,97488.13
2022-09-23T12:55:34.655Z,97474.97
2022-09-23T13:06:19.104Z,97475.56
2022-09-23T13:16:37.211Z,97454.47
2022-09-23T13:26:44.672Z,97443.84
2022-09-23T13:36:48.668Z,97433.84
2022-09-23T13:46:56.521Z,97427.84
2022-09-23T13:56:59.821Z,97405.81
2022-09-23T14:07:02.873Z,97413.47
2022-09-23T14:17:07.688Z,97405.06
2022-09-23T14:27:17.872Z,97402.50
2022-09-23T14:37:56.513Z,97396.44
2022-09-23T14:48:08.040Z,97389.28
2022-09-23T14:58:17.721Z,97394.00
2022-09-23T15:08:26.452Z,97391.22
2022-09-23T15:18:33.376Z,97381.97
2022-09-23T15:28:35.818Z,97388.34
2022-09-23T15:38:43.188Z,97384.97
2022-09-23T15:48:58.908Z,97385.06
2022-09-23T15:59:01.386Z,97381.72
2022-09-23T16:09:03.997Z,97379.94
2022-09-23T16:19:06.322Z,97368.34
2022-09-23T16:29:10.617Z,97366.72
2022-09-23T16:39:14.323Z,97377.97
2022-09-23T16:49:16.688Z,97383.63
2022-09-23T16:59:18.987Z,97369.84
2022-09-23T17:09:28.483Z,97361.81
2022-09-23T17:19:30.915Z,97372.34
2022-09-23T17:29:33.216Z,97364.31
2022-09-23T17:39:35.527Z,97359.75
2022-09-23T17:49:37.785Z,97377.38
2022-09-23T17:59:40.062Z,97371.81
2022-09-23T18:09:42.395Z,97365.72
2022-09-23T18:19:49.305Z,97374.75
2022-09-23T18:29:51.592Z,97363.72
2022-09-23T18:39:53.854Z,97358.50
2022-09-23T18:50:14.789Z,97358.66
2022-09-23T19:00:17.202Z,97366.84
2022-09-23T19:10:19.941Z,97367.59
2022-09-23T19:20:22.889Z,97364.44
2022-09-23T19:30:25.419Z,97356.19
2022-09-23T19:40:31.344Z,97359.78
2022-09-23T19:50:38.570Z,97362.94
2022-09-23T20:00:41.469Z,97360.06
2022-09-23T20:10:44.598Z,97361.81
2022-09-23T20:20:54.960Z,97351.44
2022-09-23T20:40:11.621Z,97349.75
2022-09-23T20:50:14.114Z,97339.88
2022-09-23T21:00:18.412Z,97340.31
2022-09-23T21:10:22.887Z,97331.13
2022-09-23T21:20:25.202Z,97324.19
2022-09-23T21:30:27.524Z,97326.06
2022-09-23T21:40:48.467Z,97318.78
2022-09-23T21:51:19.395Z,97313.69
2022-09-23T22:10:12.297Z,97308.91
2022-09-23T22:20:16.159Z,97306.50
2022-09-23T22:30:36.799Z,97295.91
2022-09-23T22:40:42.857Z,97291.50
2022-09-23T22:50:46.327Z,97287.06
2022-09-23T23:00:48.593Z,97284.44
2022-09-23T23:10:50.884Z,97283.19
2022-09-23T23:20:53.167Z,97268.09
2022-09-23T23:30:55.455Z,97264.34
2022-09-23T23:41:02.818Z,97249.78
2022-09-23T23:51:07.493Z,97237.63
